Time;durP1;ratioP1;P1;durP2;ratioP2;P2;SDS_P1;SDS_P2;PMS_P1;PMS_P2;Temp;Humidity;BMP_temperature;BMP_pressure;BME280_temperature;BME280_humidity;BME280_pressure;Samples;Min_cycle;Max_cycle;Signal;HPM_P1;HPM_P2
2022/03/12 00:00:13;;;;;;;3.20;3.00;;;2.10;79.10;;;;;;5073260;28;20758;-69
2022/03/12 00:02:41;;;;;;;3.30;3.10;;;2.10;80.00;;;;;;5073267;28;20250;-69
2022/03/12 00:05:09;;;;;;;3.92;3.50;;;2.10;79.90;;;;;;5073907;28;20651;-70
2022/03/12 00:07:42;;;;;;;3.42;3.20;;;2.10;80.80;;;;;;5072945;28;20766;-70
2022/03/12 00:10:13;;;;;;;3.55;3.25;;;2.10;83.50;;;;;;5073048;28;20191;-70
2022/03/12 00:12:40;;;;;;;3.45;3.15;;;2.10;84.00;;;;;;5072520;28;20243;-70
2022/03/12 00:15:11;;;;;;;3.47;3.17;;;2.10;84.30;;;;;;5072473;28;20250;-70
2022/03/12 00:17:39;;;;;;;4.22;3.83;;;2.10;82.70;;;;;;5072727;28;20579;-70
2022/03/12 00:20:12;;;;;;;4.15;3.75;;;2.10;82.80;;;;;;5072763;28;20296;-70
2022/03/12 00:22:41;;;;;;;4.63;3.35;;;2.10;83.00;;;;;;5073246;28;20215;-70
2022/03/12 00:25:11;;;;;;;3.70;3.40;;;2.10;83.30;;;;;;5073031;28;20219;-70
2022/03/12 00:27:40;;;;;;;4.65;3.95;;;2.10;83.30;;;;;;5072787;28;20188;-70
2022/03/12 00:30:07;;;;;;;4.03;3.63;;;2.10;83.30;;;;;;5072686;28;20654;-70
2022/03/12 00:32:36;;;;;;;4.03;3.72;;;2.10;82.60;;;;;;5072882;28;20216;-70
2022/03/12 00:35:03;;;;;;;3.95;3.47;;;2.10;82.70;;;;;;5072931;28;20224;-70
2022/03/12 00:37:32;;;;;;;4.13;3.72;;;2.10;83.80;;;;;;5072835;28;20224;-70
2022/03/12 00:39:59;;;;;;;3.45;3.15;;;2.10;83.50;;;;;;5072967;28;20204;-70
2022/03/12 00:42:25;;;;;;;3.22;2.85;;;2.10;83.80;;;;;;5072951;28;20287;-70
2022/03/12 00:44:52;;;;;;;2.97;2.78;;;2.10;83.30;;;;;;5072593;28;20335;-70
2022/03/12 00:47:19;;;;;;;3.40;3.10;;;2.10;83.30;;;;;;5072477;28;20200;-70
2022/03/12 00:49:46;;;;;;;4.18;3.78;;;2.10;84.30;;;;;;5072534;28;20291;-70
2022/03/12 00:52:13;;;;;;;3.33;3.10;;;2.10;86.10;;;;;;5072506;28;20819;-70
2022/03/12 00:54:41;;;;;;;3.47;3.15;;;2.10;86.90;;;;;;5072474;28;20219;-69
2022/03/12 00:57:10;;;;;;;3.00;2.80;;;2.10;86.00;;;;;;5072467;28;20742;-70
2022/03/12 00:59:38;;;;;;;3.95;3.28;;;2.20;85.40;;;;;;5073028;28;20204;-69
2022/03/12 01:02:05;;;;;;;3.10;2.92;;;2.20;84.50;;;;;;5072526;28;20639;-69
2022/03/12 01:04:32;;;;;;;3.05;2.85;;;2.20;84.70;;;;;;5072376;28;20311;-68
2022/03/12 01:06:59;;;;;;;3.20;3.00;;;2.20;86.00;;;;;;5072651;28;20200;-68
2022/03/12 01:09:26;;;;;;;3.03;2.83;;;2.20;86.80;;;;;;5072969;28;20291;-68
2022/03/12 01:11:54;;;;;;;3.50;3.20;;;2.20;87.80;;;;;;5072591;28;20647;-70
2022/03/12 01:14:21;;;;;;;3.95;3.38;;;2.20;90.10;;;;;;5072542;28;20316;-70
2022/03/12 01:16:48;;;;;;;3.10;2.90;;;2.20;89.70;;;;;;5072293;28;20626;-70
2022/03/12 01:19:15;;;;;;;3.28;3.08;;;2.20;89.70;;;;;;5072580;28;20196;-70
2022/03/12 01:21:42;;;;;;;3.17;2.88;;;2.20;89.40;;;;;;5072974;28;20201;-69
2022/03/12 01:24:09;;;;;;;3.20;2.95;;;2.20;89.70;;;;;;5072804;28;20234;-69
2022/03/12 01:26:38;;;;;;;2.80;2.65;;;2.20;89.50;;;;;;5074519;28;20290;-69
2022/03/12 01:29:07;;;;;;;2.92;2.60;;;2.20;88.40;;;;;;5075711;28;20200;-69
2022/03/12 01:31:34;;;;;;;2.80;2.60;;;2.20;87.10;;;;;;5075884;28;20223;-69
2022/03/12 01:34:01;;;;;;;3.13;2.80;;;2.10;87.30;;;;;;5075517;28;20648;-69
2022/03/12 01:36:28;;;;;;;2.92;2.72;;;2.10;87.70;;;;;;5075751;28;20273;-71
2022/03/12 01:38:56;;;;;;;3.50;3.20;;;2.10;88.00;;;;;;5075397;28;20226;-71
2022/03/12 01:41:26;;;;;;;3.05;2.85;;;2.10;89.80;;;;;;5075666;28;20200;-70
2022/03/12 01:43:54;;;;;;;2.95;2.78;;;2.00;90.10;;;;;;5074851;28;20679;-70
2022/03/12 01:46:32;;;;;;;3.55;3.17;;;2.00;91.00;;;;;;5075228;28;20189;-70
2022/03/12 01:49:00;;;;;;;3.30;3.00;;;1.90;91.00;;;;;;5075261;28;20215;-70
2022/03/12 01:51:27;;;;;;;3.15;2.95;;;1.90;91.70;;;;;;5074801;28;20227;-70
2022/03/12 01:53:54;;;;;;;3.03;2.83;;;1.90;91.70;;;;;;5075255;28;20658;-70
2022/03/12 01:56:21;;;;;;;2.72;2.63;;;1.90;92.10;;;;;;5075591;28;20206;-70
2022/03/12 01:58:48;;;;;;;3.05;2.75;;;1.80;92.00;;;;;;5075702;28;20200;-70
2022/03/12 02:01:15;;;;;;;3.35;3.05;;;1.80;92.70;;;;;;5078641;28;20230;-70
2022/03/12 02:03:44;;;;;;;3.33;2.92;;;1.70;93.20;;;;;;5075419;28;20227;-70
2022/03/12 02:06:21;;;;;;;3.15;2.90;;;1.70;94.10;;;;;;5074949;28;20323;-69
2022/03/12 02:08:49;;;;;;;2.97;2.67;;;1.70;94.90;;;;;;5075548;28;20196;-69
2022/03/12 02:11:27;;;;;;;2.65;2.50;;;1.70;95.30;;;;;;5075090;28;20200;-69
2022/03/12 02:13:58;;;;;;;3.10;2.80;;;1.70;95.30;;;;;;5075243;28;20181;-69
2022/03/12 02:16:26;;;;;;;3.42;3.22;;;1.70;95.90;;;;;;5075179;28;20203;-69
2022/03/12 02:18:54;;;;;;;3.00;2.80;;;1.70;95.40;;;;;;5075118;28;20227;-69
2022/03/12 02:21:35;;;;;;;2.95;2.75;;;1.70;94.80;;;;;;5075008;28;20287;-69
2022/03/12 02:24:05;;;;;;;3.20;2.90;;;1.60;94.50;;;;;;5074725;28;20553;-69
2022/03/12 02:26:31;;;;;;;3.15;2.88;;;1.60;95.10;;;;;;5074688;28;20667;-69
2022/03/12 02:28:58;;;;;;;2.72;2.53;;;1.60;94.30;;;;;;5074928;28;20200;-69
2022/03/12 02:31:27;;;;;;;2.90;2.70;;;1.60;94.00;;;;;;5075040;28;20210;-69
2022/03/12 02:33:58;;;;;;;2.97;2.78;;;1.60;93.50;;;;;;5074646;28;20566;-69
2022/03/12 02:36:26;;;;;;;3.03;2.78;;;1.60;94.10;;;;;;5075621;28;20243;-69
2022/03/12 02:38:54;;;;;;;2.75;2.55;;;1.60;94.20;;;;;;5074907;28;20250;-69
2022/03/12 02:41:25;;;;;;;3.13;2.92;;;1.50;95.10;;;;;;5074324;28;20202;-69
2022/03/12 02:43:52;;;;;;;3.30;3.08;;;1.50;96.10;;;;;;5074083;28;20553;-69
2022/03/12 02:46:19;;;;;;;3.20;3.00;;;1.40;96.50;;;;;;5074509;28;20295;-70
2022/03/12 02:48:50;;;;;;;3.15;2.85;;;1.40;96.50;;;;;;5074149;28;20698;-69
2022/03/12 02:51:17;;;;;;;3.95;3.50;;;1.40;97.40;;;;;;5074474;28;20191;-69
2022/03/12 02:53:45;;;;;;;4.18;3.08;;;1.30;97.80;;;;;;5074369;28;20230;-69
2022/03/12 02:56:12;;;;;;;2.47;2.30;;;1.30;98.40;;;;;;5074248;28;20246;-69
2022/03/12 02:58:41;;;;;;;2.92;2.72;;;1.20;98.20;;;;;;5074193;28;20299;-69
2022/03/12 03:01:13;;;;;;;2.67;2.50;;;1.20;98.70;;;;;;5074285;28;20283;-69
2022/03/12 03:03:41;;;;;;;2.90;2.70;;;1.20;99.10;;;;;;5073903;28;20689;-70
2022/03/12 03:06:09;;;;;;;3.58;3.35;;;1.20;99.70;;;;;;5074035;28;20231;-70
2022/03/12 03:08:39;;;;;;;2.33;2.22;;;1.10;99.90;;;;;;5074079;28;20207;-70
2022/03/12 03:11:12;;;;;;;2.90;2.70;;;1.10;99.90;;;;;;5073694;28;20578;-70
2022/03/12 03:13:44;;;;;;;3.70;3.40;;;1.10;99.90;;;;;;5073996;28;20208;-70
2022/03/12 03:16:20;;;;;;;2.90;2.70;;;1.10;99.90;;;;;;5074008;28;20277;-69
2022/03/12 03:18:51;;;;;;;3.30;3.00;;;1.10;99.90;;;;;;5074001;28;20188;-69
2022/03/12 03:21:19;;;;;;;2.85;2.65;;;1.10;99.90;;;;;;5073833;28;20192;-69
2022/03/12 03:23:47;;;;;;;3.15;2.95;;;1.10;99.90;;;;;;5073855;28;20207;-69
2022/03/12 03:26:14;;;;;;;2.22;2.13;;;1.20;99.90;;;;;;5073813;28;20206;-69
2022/03/12 03:28:43;;;;;;;3.42;3.08;;;1.20;99.90;;;;;;5073435;28;20616;-69
2022/03/12 03:31:09;;;;;;;2.90;2.72;;;1.20;99.90;;;;;;5073881;28;20208;-69
2022/03/12 03:33:36;;;;;;;2.72;2.50;;;1.30;99.90;;;;;;5073720;28;20340;-69
2022/03/12 03:36:04;;;;;;;3.40;3.13;;;1.30;99.90;;;;;;5073315;28;20609;-69
2022/03/12 03:38:31;;;;;;;4.32;3.28;;;1.30;99.90;;;;;;5074432;28;20204;-69
2022/03/12 03:40:58;;;;;;;2.92;2.67;;;1.40;99.90;;;;;;5073590;28;20200;-69
2022/03/12 03:43:25;;;;;;;3.58;3.28;;;1.40;99.90;;;;;;5073728;28;20288;-69
2022/03/12 03:45:56;;;;;;;3.28;2.97;;;1.40;99.90;;;;;;5072958;28;20228;-69
2022/03/12 03:48:24;;;;;;;8.63;5.65;;;1.40;99.90;;;;;;5072951;28;20191;-69
2022/03/12 03:50:52;;;;;;;7.90;5.50;;;1.40;99.20;;;;;;5073544;28;20231;-69
2022/03/12 03:53:22;;;;;;;10.15;6.03;;;1.40;99.90;;;;;;5073391;28;20226;-69
2022/03/12 03:55:50;;;;;;;8.13;5.32;;;1.40;99.90;;;;;;5075903;28;20246;-70
2022/03/12 03:58:17;;;;;;;6.57;5.65;;;1.50;99.90;;;;;;5076543;28;20200;-70
2022/03/12 04:00:54;;;;;;;6.05;5.35;;;1.50;99.90;;;;;;5074377;28;20202;-70
2022/03/12 04:03:21;;;;;;;6.13;4.80;;;1.50;99.90;;;;;;5073042;28;20184;-70
2022/03/12 04:05:48;;;;;;;5.53;5.03;;;1.50;99.90;;;;;;5073907;28;20233;-70
2022/03/12 04:08:15;;;;;;;5.05;4.40;;;1.50;99.90;;;;;;5072742;28;20204;-70
2022/03/12 04:10:41;;;;;;;4.95;4.25;;;1.40;99.90;;;;;;5072749;28;20247;-70
2022/03/12 04:13:12;;;;;;;5.60;4.57;;;1.40;99.90;;;;;;5072664;28;20303;-70
2022/03/12 04:15:39;;;;;;;5.22;4.13;;;1.40;99.90;;;;;;5072740;28;20228;-69
2022/03/12 04:18:08;;;;;;;3.83;3.50;;;1.40;99.90;;;;;;5072758;28;20231;-69
2022/03/12 04:20:36;;;;;;;4.22;3.83;;;1.40;99.90;;;;;;5072459;28;20637;-69
2022/03/12 04:23:03;;;;;;;4.68;4.22;;;1.40;99.90;;;;;;5073100;28;20206;-69
2022/03/12 04:25:31;;;;;;;4.80;4.32;;;1.40;99.90;;;;;;5072812;28;20258;-69
2022/03/12 04:27:58;;;;;;;4.72;4.03;;;1.40;99.90;;;;;;5073209;28;20566;-69
2022/03/12 04:30:25;;;;;;;4.07;3.78;;;1.40;99.90;;;;;;5072785;28;20204;-70
2022/03/12 04:32:53;;;;;;;3.72;3.42;;;1.50;99.90;;;;;;5073234;28;20220;-70
2022/03/12 04:35:22;;;;;;;3.97;3.67;;;1.50;99.90;;;;;;5072890;28;20216;-70
2022/03/12 04:37:49;;;;;;;4.10;3.67;;;1.50;99.90;;;;;;5072684;28;20677;-70
2022/03/12 04:40:19;;;;;;;3.75;3.53;;;1.50;99.90;;;;;;5072650;28;20633;-70
2022/03/12 04:42:46;;;;;;;3.70;3.40;;;1.60;99.90;;;;;;5072956;28;20267;-70
2022/03/12 04:45:15;;;;;;;4.22;3.63;;;1.60;99.90;;;;;;5072540;28;20274;-70
2022/03/12 04:47:42;;;;;;;3.60;3.30;;;1.60;99.90;;;;;;5072720;28;20196;-70
2022/03/12 04:50:12;;;;;;;3.13;2.92;;;1.60;99.90;;;;;;5072859;28;20199;-70
2022/03/12 04:52:42;;;;;;;3.47;3.20;;;1.60;99.90;;;;;;5072659;28;20259;-69
2022/03/12 04:55:11;;;;;;;4.72;3.45;;;1.60;99.90;;;;;;5072995;28;20223;-70
2022/03/12 04:57:39;;;;;;;3.22;2.92;;;1.60;99.90;;;;;;5072443;28;20568;-70
2022/03/12 05:00:08;;;;;;;3.60;3.30;;;1.70;99.90;;;;;;5072437;28;20299;-69
2022/03/12 05:02:35;;;;;;;3.35;3.13;;;1.60;99.90;;;;;;5076234;28;20192;-69
2022/03/12 05:05:02;;;;;;;3.08;2.78;;;1.70;99.90;;;;;;5076014;28;20587;-70
2022/03/12 05:07:29;;;;;;;3.40;3.15;;;1.70;99.90;;;;;;5075999;28;20722;-70
2022/03/12 05:09:58;;;;;;;3.25;2.95;;;1.70;99.90;;;;;;5076364;28;20202;-70
2022/03/12 05:12:26;;;;;;;3.33;3.10;;;1.70;99.90;;;;;;5075913;28;20561;-70
2022/03/12 05:14:53;;;;;;;3.63;3.33;;;1.70;99.90;;;;;;5076316;28;20220;-70
2022/03/12 05:17:26;;;;;;;3.80;3.50;;;;;;;;;;5076284;28;20226;-70
2022/03/12 05:19:53;;;;;;;3.85;3.35;;;1.80;99.90;;;;;;5075962;28;20582;-70
2022/03/12 05:22:20;;;;;;;3.33;3.13;;;1.80;99.90;;;;;;5076145;28;20207;-70
2022/03/12 05:24:47;;;;;;;3.60;3.30;;;1.80;99.90;;;;;;5075745;28;20307;-70
2022/03/12 05:27:17;;;;;;;3.17;2.97;;;1.80;99.90;;;;;;5075662;28;20689;-70
2022/03/12 05:29:46;;;;;;;3.50;3.20;;;1.80;99.90;;;;;;5075717;28;20191;-70
2022/03/12 05:32:15;;;;;;;3.80;3.03;;;1.80;99.90;;;;;;5076196;28;20200;-70
2022/03/12 05:34:42;;;;;;;4.95;4.45;;;1.80;99.90;;;;;;5075541;28;20220;-70
2022/03/12 05:37:09;;;;;;;6.20;4.53;;;1.80;99.90;;;;;;5075604;28;20660;-70
2022/03/12 05:39:37;;;;;;;6.75;4.82;;;1.80;99.90;;;;;;5075461;28;20663;-70
2022/03/12 05:42:05;;;;;;;8.45;6.07;;;1.70;99.90;;;;;;5075980;28;20204;-70
2022/03/12 05:44:36;;;;;;;8.98;6.75;;;1.70;99.90;;;;;;5075407;28;20259;-69
2022/03/12 05:47:03;;;;;;;12.23;7.70;;;1.70;99.90;;;;;;5075522;28;20224;-72
2022/03/12 05:49:30;;;;;;;11.75;7.20;;;1.60;99.90;;;;;;5075557;28;20199;-69
2022/03/12 05:51:58;;;;;;;9.95;7.30;;;1.60;99.90;;;;;;5076104;28;20199;-69
2022/03/12 05:54:25;;;;;;;11.68;7.45;;;1.60;99.90;;;;;;5075109;28;20220;-68
2022/03/12 05:56:51;;;;;;;12.23;8.07;;;1.60;99.90;;;;;;5075718;28;20214;-70
2022/03/12 05:59:18;;;;;;;13.05;7.97;;;1.60;99.90;;;;;;5075483;28;20238;-69
2022/03/12 06:01:47;;;;;;;11.30;7.97;;;1.50;99.90;;;;;;5075387;28;20236;-69
2022/03/12 06:04:19;;;;;;;12.05;7.93;;;1.60;99.90;;;;;;5075285;28;20296;-69
2022/03/12 06:06:47;;;;;;;8.93;7.10;;;1.60;99.90;;;;;;5075306;28;20184;-69
2022/03/12 06:09:13;;;;;;;8.57;6.68;;;1.70;99.90;;;;;;5075190;28;20208;-69
2022/03/12 06:11:42;;;;;;;8.90;5.85;;;1.80;99.90;;;;;;5074785;28;20290;-70
2022/03/12 06:14:13;;;;;;;9.88;5.97;;;1.90;99.90;;;;;;5075207;28;20231;-70
2022/03/12 06:16:39;;;;;;;10.73;7.57;;;2.10;99.90;;;;;;5075251;28;20282;-70
2022/03/12 06:19:08;;;;;;;8.32;6.55;;;2.10;99.90;;;;;;5075179;28;20204;-69
2022/03/12 06:21:35;;;;;;;11.35;7.05;;;2.30;99.90;;;;;;5074690;28;20670;-69
2022/03/12 06:24:03;;;;;;;10.50;7.18;;;2.40;94.80;;;;;;5074625;28;20671;-69
2022/03/12 06:26:35;;;;;;;8.88;6.88;;;2.50;92.90;;;;;;5074689;28;20540;-70
2022/03/12 06:29:03;;;;;;;8.25;6.18;;;2.70;93.10;;;;;;5075128;28;20229;-69
2022/03/12 06:31:31;;;;;;;10.95;7.45;;;2.90;94.10;;;;;;5074555;28;20667;-70
2022/03/12 06:33:58;;;;;;;10.50;6.80;;;3.30;91.30;;;;;;5074679;28;20285;-70
2022/03/12 06:36:26;;;;;;;12.02;7.93;;;3.60;76.40;;;;;;5074389;28;20203;-69
2022/03/12 06:38:53;;;;;;;10.38;7.55;;;3.50;73.50;;;;;;5074723;28;20299;-69
2022/03/12 06:41:20;;;;;;;12.05;7.68;;;3.60;79.30;;;;;;5074546;28;20523;-70
2022/03/12 06:43:48;;;;;;;11.88;7.68;;;3.90;75.20;;;;;;5074388;28;20630;-70
2022/03/12 06:46:15;;;;;;;11.95;8.13;;;4.20;80.40;;;;;;5074437;28;20211;-70
2022/03/12 06:48:42;;;;;;;11.82;8.07;;;5.00;76.30;;;;;;5074450;28;20227;-70
2022/03/12 06:51:10;;;;;;;9.68;7.30;;;6.00;77.10;;;;;;5074344;28;20208;-70
2022/03/12 06:53:38;;;;;;;11.30;8.27;;;6.90;61.00;;;;;;5074064;28;20220;-69
2022/03/12 06:56:06;;;;;;;11.70;7.93;;;7.40;51.20;;;;;;5074307;28;20273;-70
2022/03/12 06:58:34;;;;;;;12.70;8.63;;;7.80;51.80;;;;;;5074387;28;20196;-70
2022/03/12 07:01:01;;;;;;;11.77;7.85;;;8.20;50.30;;;;;;5074429;28;20226;-70
2022/03/12 07:03:28;;;;;;;10.20;7.50;;;8.90;48.80;;;;;;5076935;28;20208;-71
2022/03/12 07:05:55;;;;;;;11.55;8.05;;;9.50;45.70;;;;;;5077433;28;20562;-68
2022/03/12 07:08:23;;;;;;;12.48;8.02;;;10.00;41.50;;;;;;5078283;28;20199;-69
2022/03/12 07:10:52;;;;;;;14.77;9.57;;;10.50;39.20;;;;;;5077545;28;20199;-69
2022/03/12 07:13:19;;;;;;;14.70;9.27;;;10.90;36.40;;;;;;5077341;28;20212;-69
2022/03/12 07:15:47;;;;;;;14.10;9.82;;;11.20;33.70;;;;;;5077877;28;20307;-70
2022/03/12 07:18:14;;;;;;;17.33;10.38;;;11.30;30.40;;;;;;5078159;28;20578;-71
2022/03/12 07:20:41;;;;;;;17.55;10.82;;;11.50;30.30;;;;;;5078263;28;20192;-70
2022/03/12 07:23:09;;;;;;;14.45;9.88;;;11.80;30.60;;;;;;5077841;28;20196;-72
2022/03/12 07:25:36;;;;;;;16.10;9.35;;;12.20;29.00;;;;;;5078979;28;20230;-72
2022/03/12 07:28:10;;;;;;;13.95;10.27;;;12.30;28.60;;;;;;5077716;28;20291;-72
2022/03/12 07:30:37;;;;;;;13.45;9.65;;;12.30;27.90;;;;;;5075626;28;20241;-72
2022/03/12 07:33:05;;;;;;;13.90;9.73;;;12.30;27.60;;;;;;5075863;28;20200;-71
2022/03/12 07:35:33;;;;;;;14.32;9.32;;;12.00;27.70;;;;;;5078395;28;20695;-72
2022/03/12 07:38:02;;;;;;;13.43;9.10;;;11.80;27.70;;;;;;5077034;28;20598;-71
2022/03/12 07:40:29;;;;;;;12.45;8.57;;;11.60;28.00;;;;;;5076457;28;20599;-71
2022/03/12 07:42:57;;;;;;;10.13;7.60;;;11.30;28.10;;;;;;5077403;28;20207;-69
2022/03/12 07:45:25;;;;;;;11.25;7.53;;;11.10;28.80;;;;;;5075470;28;20277;-69
2022/03/12 07:47:52;;;;;;;8.50;6.88;;;11.00;29.20;;;;;;5073560;28;20235;-69
2022/03/12 07:50:20;;;;;;;12.15;8.52;;;11.00;28.80;;;;;;5073584;28;20206;-69
2022/03/12 07:52:47;;;;;;;12.32;8.88;;;11.00;28.70;;;;;;5073631;28;20203;-68
2022/03/12 07:55:16;;;;;;;13.15;8.77;;;10.70;28.70;;;;;;5073319;28;20251;-68
2022/03/12 07:57:43;;;;;;;12.77;9.05;;;10.50;29.20;;;;;;5073744;28;20199;-69
2022/03/12 08:00:12;;;;;;;10.77;8.05;;;10.50;29.70;;;;;;5073437;28;20298;-69
2022/03/12 08:02:41;;;;;;;9.23;7.50;;;10.60;29.40;;;;;;5073528;28;20293;-71
2022/03/12 08:05:08;;;;;;;12.27;8.45;;;10.70;29.60;;;;;;5073178;28;20220;-75
2022/03/12 08:07:36;;;;;;;13.32;9.88;;;10.70;28.90;;;;;;5073507;28;20222;-73
2022/03/12 08:10:04;;;;;;;12.73;8.90;;;10.70;29.20;;;;;;5073367;28;20210;-74
2022/03/12 08:12:31;;;;;;;13.85;9.45;;;10.70;28.90;;;;;;5073390;28;20200;-74
2022/03/12 08:14:59;;;;;;;11.98;8.35;;;10.60;28.70;;;;;;5073364;28;20227;-74
2022/03/12 08:17:26;;;;;;;12.65;8.95;;;10.60;29.30;;;;;;5073314;28;20223;-74
2022/03/12 08:19:54;;;;;;;11.98;8.30;;;10.70;29.00;;;;;;5073309;28;20238;-74
2022/03/12 08:22:21;;;;;;;13.23;9.93;;;10.70;28.90;;;;;;5073383;28;20206;-74
2022/03/12 08:24:49;;;;;;;14.10;9.23;;;10.60;28.70;;;;;;5073049;28;20582;-74
2022/03/12 08:27:16;;;;;;;11.45;9.13;;;10.50;29.30;;;;;;5073101;28;20203;-74
2022/03/12 08:29:43;;;;;;;13.75;9.25;;;10.40;29.30;;;;;;5072894;28;20291;-74
2022/03/12 08:32:11;;;;;;;13.25;9.60;;;10.30;29.40;;;;;;5073650;28;20214;-73
2022/03/12 08:34:38;;;;;;;11.80;8.95;;;10.20;29.40;;;;;;5073675;28;20558;-73
2022/03/12 08:37:07;;;;;;;13.20;9.32;;;10.00;29.40;;;;;;5077277;28;20200;-73
2022/03/12 08:39:34;;;;;;;11.80;8.55;;;9.90;30.70;;;;;;5076876;28;20196;-73
2022/03/12 08:42:01;;;;;;;11.15;8.43;;;9.80;30.90;;;;;;5077162;28;20200;-73
2022/03/12 08:44:28;;;;;;;12.65;9.02;;;9.90;30.90;;;;;;5076742;28;20251;-73
2022/03/12 08:46:55;;;;;;;12.77;8.88;;;9.80;30.60;;;;;;5076698;28;20718;-73
2022/03/12 08:49:22;;;;;;;12.57;8.98;;;9.80;31.40;;;;;;5076654;28;20746;-73
2022/03/12 08:51:49;;;;;;;12.45;7.95;;;9.90;31.10;;;;;;5076483;28;20196;-73
2022/03/12 08:54:18;;;;;;;12.38;8.02;;;10.00;30.00;;;;;;5076307;28;20710;-72
2022/03/12 08:56:45;;;;;;;16.75;9.30;;;9.90;30.50;;;;;;5076741;28;20287;-73
2022/03/12 08:59:12;;;;;;;11.73;8.77;;;9.80;30.40;;;;;;5076830;28;20291;-74
2022/03/12 09:01:41;;;;;;;14.45;10.05;;;9.80;31.10;;;;;;5076943;28;20602;-73
2022/03/12 09:04:08;;;;;;;19.10;10.43;;;9.80;30.60;;;;;;5076250;28;20177;-73
2022/03/12 09:06:35;;;;;;;15.00;9.38;;;9.70;31.40;;;;;;5076547;28;20206;-72
2022/03/12 09:09:01;;;;;;;11.30;8.23;;;9.70;31.70;;;;;;5076725;28;20206;-69
2022/03/12 09:11:30;;;;;;;12.52;8.60;;;9.70;32.10;;;;;;5076904;28;20295;-69
2022/03/12 09:13:56;;;;;;;16.23;10.00;;;9.80;33.00;;;;;;5076004;28;20306;-69
2022/03/12 09:16:23;;;;;;;16.17;11.02;;;9.80;31.80;;;;;;5076344;28;20204;-71
2022/03/12 09:18:51;;;;;;;20.67;12.10;;;9.90;31.90;;;;;;5076380;28;20200;-71
2022/03/12 09:21:18;;;;;;;18.85;10.65;;;9.90;32.10;;;;;;5076378;28;20204;-68
2022/03/12 09:23:45;;;;;;;17.13;10.63;;;10.00;31.20;;;;;;5076358;28;20206;-70
2022/03/12 09:26:14;;;;;;;14.75;9.18;;;10.00;31.30;;;;;;5076050;28;20252;-69
2022/03/12 09:28:42;;;;;;;14.32;9.05;;;10.10;32.10;;;;;;5076038;28;20200;-70
2022/03/12 09:31:10;;;;;;;15.65;10.02;;;10.30;31.90;;;;;;5076158;28;20199;-70
2022/03/12 09:33:38;;;;;;;14.40;9.75;;;10.40;32.10;;;;;;5076151;28;20199;-70
2022/03/12 09:36:05;;;;;;;14.25;9.60;;;10.50;32.00;;;;;;5076254;28;20228;-69
2022/03/12 09:38:32;;;;;;;15.32;10.25;;;10.60;32.20;;;;;;5076282;28;20204;-70
2022/03/12 09:40:59;;;;;;;17.98;10.73;;;10.60;32.30;;;;;;5076123;28;20291;-68
2022/03/12 09:43:26;;;;;;;16.50;10.50;;;10.60;32.50;;;;;;5076199;28;20226;-69
2022/03/12 09:45:56;;;;;;;14.77;9.65;;;10.70;32.80;;;;;;5075426;28;20715;-69
2022/03/12 09:48:24;;;;;;;11.57;9.10;;;10.70;33.00;;;;;;5075157;28;20586;-69
2022/03/12 09:50:50;;;;;;;18.83;11.25;;;10.80;33.40;;;;;;5075459;28;20658;-70
2022/03/12 09:53:18;;;;;;;17.80;11.80;;;;;;;;;;5076051;28;20202;-69
2022/03/12 09:55:45;;;;;;;17.58;11.50;;;10.90;31.80;;;;;;5075245;28;20599;-70
2022/03/12 09:58:11;;;;;;;21.25;12.07;;;10.90;32.50;;;;;;5075735;28;20269;-69
2022/03/12 10:00:39;;;;;;;13.70;9.52;;;11.00;32.50;;;;;;5075960;28;20286;-70
2022/03/12 10:03:07;;;;;;;13.77;9.38;;;11.10;32.50;;;;;;5075465;28;20556;-69
2022/03/12 10:05:34;;;;;;;14.20;10.05;;;11.20;32.40;;;;;;5075800;28;20659;-70
2022/03/12 10:08:02;;;;;;;17.38;10.45;;;11.40;31.50;;;;;;5075466;28;20200;-69
2022/03/12 10:10:31;;;;;;;18.23;11.52;;;11.50;30.60;;;;;;5075605;28;20203;-70
2022/03/12 10:12:58;;;;;;;17.67;11.05;;;11.40;30.20;;;;;;5075779;28;20200;-70
2022/03/12 10:15:25;;;;;;;18.65;11.43;;;11.50;30.30;;;;;;5075235;28;20718;-69
2022/03/12 10:17:52;;;;;;;18.17;11.20;;;11.50;30.30;;;;;;5075397;28;20204;-69
2022/03/12 10:20:21;;;;;;;16.90;10.43;;;11.40;30.20;;;;;;5075419;28;20250;-69
2022/03/12 10:22:49;;;;;;;17.63;10.52;;;11.50;31.10;;;;;;5075219;28;20291;-69
2022/03/12 10:25:16;;;;;;;16.85;10.70;;;11.70;30.50;;;;;;5075208;28;20248;-69
2022/03/12 10:27:43;;;;;;;20.67;12.07;;;11.80;30.60;;;;;;5075157;28;20386;-68
2022/03/12 10:30:12;;;;;;;16.88;10.85;;;11.70;30.30;;;;;;5076208;28;20206;-68
2022/03/12 10:32:44;;;;;;;17.58;11.15;;;11.70;30.50;;;;;;5081959;28;20200;-68
2022/03/12 10:35:14;;;;;;;15.55;10.57;;;11.70;30.50;;;;;;5079669;28;20258;-69
2022/03/12 10:37:43;;;;;;;16.90;10.60;;;11.70;30.50;;;;;;5080369;28;20210;-69
2022/03/12 10:40:13;;;;;;;21.35;12.35;;;11.80;30.60;;;;;;5079929;28;20196;-69
2022/03/12 10:42:47;;;;;;;19.75;10.90;;;11.80;30.30;;;;;;5080036;28;20579;-69
2022/03/12 10:45:16;;;;;;;18.80;12.27;;;11.90;29.70;;;;;;5079183;28;20234;-68
2022/03/12 10:47:46;;;;;;;16.88;11.15;;;11.70;29.60;;;;;;5078677;28;20200;-69
2022/03/12 10:50:18;;;;;;;19.67;11.68;;;11.70;29.90;;;;;;5079824;28;20234;-69
2022/03/12 10:52:49;;;;;;;21.48;12.98;;;11.80;29.60;;;;;;5079396;28;20188;-69
2022/03/12 10:55:19;;;;;;;19.92;12.00;;;11.60;29.40;;;;;;5079621;28;20259;-69
2022/03/12 10:58:05;;;;;;;17.40;10.82;;;11.50;29.80;;;;;;5080299;28;20226;-69
2022/03/12 11:00:38;;;;;;;19.90;10.85;;;11.60;30.00;;;;;;5079865;28;20251;-69
2022/03/12 11:03:08;;;;;;;19.27;11.48;;;11.60;30.20;;;;;;5079645;28;20267;-69
2022/03/12 11:05:36;;;;;;;16.60;10.55;;;11.60;30.40;;;;;;5080026;28;20228;-70
2022/03/12 11:08:24;;;;;;;17.80;11.13;;;11.60;30.80;;;;;;5079568;28;20204;-68
2022/03/12 11:10:54;;;;;;;17.60;10.82;;;11.60;30.80;;;;;;5078930;28;20188;-69
2022/03/12 11:13:39;;;;;;;16.67;12.40;;;11.50;30.70;;;;;;5079276;28;20240;-69
2022/03/12 11:16:08;;;;;;;15.70;10.52;;;11.40;30.90;;;;;;5079609;28;20292;-69
2022/03/12 11:18:35;;;;;;;14.10;9.65;;;11.40;31.50;;;;;;5078634;28;20204;-69
2022/03/12 11:21:03;;;;;;;15.40;9.80;;;11.50;31.30;;;;;;5080133;28;20195;-70
2022/03/12 11:23:32;;;;;;;16.95;10.63;;;11.60;30.90;;;;;;5079124;28;20200;-70
2022/03/12 11:26:06;;;;;;;14.73;9.93;;;11.60;30.80;;;;;;5079119;28;20223;-69
2022/03/12 11:28:35;;;;;;;16.60;10.73;;;11.40;30.90;;;;;;5079799;28;20693;-70
2022/03/12 11:31:04;;;;;;;19.73;12.07;;;11.30;31.00;;;;;;5077050;28;20200;-68
2022/03/12 11:33:32;;;;;;;18.45;11.38;;;11.10;31.70;;;;;;5073823;28;20196;-68
2022/03/12 11:36:00;;;;;;;17.83;11.38;;;11.10;31.80;;;;;;5073092;28;20695;-67
2022/03/12 11:38:29;;;;;;;22.50;10.75;;;11.10;32.50;;;;;;5073407;28;20200;-67
2022/03/12 11:41:06;;;;;;;18.63;12.23;;;11.10;33.00;;;;;;5073970;28;20269;-67
2022/03/12 11:43:38;;;;;;;17.08;11.00;;;11.10;32.60;;;;;;5073177;28;20650;-67
2022/03/12 11:46:07;;;;;;;18.23;11.68;;;11.00;32.90;;;;;;5073033;28;20242;-68
2022/03/12 11:48:36;;;;;;;14.88;9.48;;;11.20;33.10;;;;;;5073429;28;20245;-68
2022/03/12 11:51:04;;;;;;;18.25;11.02;;;11.30;33.90;;;;;;5073635;28;20204;-67
2022/03/12 11:53:36;;;;;;;16.52;10.77;;;11.30;32.50;;;;;;5073758;28;20350;-67
2022/03/12 11:56:05;;;;;;;16.58;10.95;;;11.50;32.40;;;;;;5073457;28;20277;-67
2022/03/12 11:58:33;;;;;;;19.75;11.85;;;11.50;32.10;;;;;;5073510;28;20249;-67
2022/03/12 12:01:00;;;;;;;17.30;11.10;;;11.50;32.00;;;;;;5073234;28;20670;-67
2022/03/12 12:03:26;;;;;;;18.00;11.80;;;11.40;31.80;;;;;;5073531;28;20273;-67
2022/03/12 12:05:55;;;;;;;19.05;11.45;;;11.40;32.00;;;;;;5072981;28;20647;-67
2022/03/12 12:08:22;;;;;;;16.80;10.88;;;11.50;32.00;;;;;;5073052;28;20200;-67
2022/03/12 12:10:54;;;;;;;18.83;11.32;;;11.50;32.20;;;;;;5072850;28;20200;-67
2022/03/12 12:13:23;;;;;;;16.85;10.45;;;11.50;31.80;;;;;;5073346;28;20188;-68
2022/03/12 12:15:50;;;;;;;18.13;12.20;;;11.40;32.10;;;;;;5072792;28;20730;-68
2022/03/12 12:18:17;;;;;;;17.35;11.00;;;11.30;32.60;;;;;;5072960;28;20667;-68
2022/03/12 12:20:44;;;;;;;15.77;10.10;;;11.20;33.20;;;;;;5073213;28;20291;-68
2022/03/12 12:23:18;;;;;;;15.63;9.30;;;11.30;33.70;;;;;;5073074;28;20611;-68
2022/03/12 12:25:45;;;;;;;15.50;10.23;;;11.30;33.70;;;;;;5073473;28;20227;-69
2022/03/12 12:28:18;;;;;;;15.60;10.10;;;11.40;33.00;;;;;;5073722;28;20200;-68
2022/03/12 12:30:47;;;;;;;16.10;10.55;;;11.40;34.00;;;;;;5073084;28;20667;-69
2022/03/12 12:33:19;;;;;;;16.88;10.80;;;11.50;32.90;;;;;;5073481;28;20196;-72
2022/03/12 12:35:47;;;;;;;15.00;10.75;;;11.60;32.80;;;;;;5073364;28;20266;-69
2022/03/12 12:38:17;;;;;;;15.07;10.05;;;11.60;33.00;;;;;;5074031;28;20283;-69
2022/03/12 12:40:47;;;;;;;18.02;9.70;;;11.60;32.60;;;;;;5073261;28;20196;-69
2022/03/12 12:43:18;;;;;;;14.05;9.07;;;11.60;32.80;;;;;;5073957;28;20226;-68
2022/03/12 12:46:05;;;;;;;15.68;11.05;;;11.70;32.90;;;;;;5072836;28;20224;-68
2022/03/12 12:48:33;;;;;;;14.30;10.05;;;11.60;32.30;;;;;;5072820;28;20185;-68
2022/03/12 12:51:06;;;;;;;16.95;10.80;;;11.60;32.50;;;;;;5072956;28;20291;-68